createdAt,value
2018-07-11T00:02:26.804Z,7.20
2018-07-11T00:04:54.959Z,5.78
2018-07-11T00:07:23.107Z,6.20
2018-07-11T00:09:51.282Z,5.45
2018-07-11T00:12:19.424Z,6.15
2018-07-11T00:14:47.583Z,6.10
2018-07-11T00:17:16.059Z,7.03
2018-07-11T00:19:44.498Z,7.17
2018-07-11T00:22:12.630Z,6.97
2018-07-11T00:24:40.810Z,6.92
2018-07-11T00:27:08.962Z,5.95
2018-07-11T00:29:37.098Z,6.72
2018-07-11T00:32:05.251Z,7.37
2018-07-11T00:34:33.389Z,8.30
2018-07-11T00:37:01.587Z,6.08
2018-07-11T00:39:30.154Z,6.67
2018-07-11T00:41:58.362Z,7.40
2018-07-11T00:44:26.513Z,6.53
2018-07-11T00:46:54.750Z,7.03
2018-07-11T00:49:22.905Z,7.08
2018-07-11T00:51:50.904Z,7.67
2018-07-11T00:54:19.181Z,7.20
2018-07-11T00:56:47.347Z,7.58
2018-07-11T00:59:20.365Z,6.85
2018-07-11T01:01:48.548Z,7.03
2018-07-11T01:04:16.701Z,7.90
2018-07-11T01:06:44.860Z,7.67
2018-07-11T01:09:13.003Z,7.22
2018-07-11T01:11:41.165Z,7.53
2018-07-11T01:14:09.305Z,7.35
2018-07-11T01:16:37.469Z,7.37
2018-07-11T01:19:10.493Z,8.15
2018-07-11T01:21:38.883Z,7.67
2018-07-11T01:24:06.812Z,7.42
2018-07-11T01:26:36.058Z,7.67
2018-07-11T01:29:04.514Z,7.95
2018-07-11T01:31:32.689Z,8.03
2018-07-11T01:34:00.948Z,8.78
2018-07-11T01:36:29.657Z,7.62
2018-07-11T01:38:58.657Z,7.85
2018-07-11T01:41:26.834Z,8.85
2018-07-11T01:43:55.148Z,10.78
2018-07-11T01:46:23.286Z,7.90
2018-07-11T01:48:51.438Z,8.28
2018-07-11T01:51:19.770Z,7.85
2018-07-11T01:53:47.941Z,8.60
2018-07-11T01:56:16.122Z,8.00
2018-07-11T01:58:46.315Z,8.30
2018-07-11T02:01:15.334Z,8.78
2018-07-11T02:03:43.525Z,8.23
2018-07-11T02:06:11.689Z,8.98
2018-07-11T02:08:39.837Z,7.65
2018-07-11T02:11:07.989Z,8.45
2018-07-11T02:13:36.145Z,7.97
2018-07-11T02:16:04.294Z,8.18
2018-07-11T02:18:32.448Z,7.47
2018-07-11T02:21:00.605Z,8.95
2018-07-11T02:23:34.560Z,10.35
2018-07-11T02:26:02.797Z,8.00
2018-07-11T02:28:30.993Z,8.05
2018-07-11T02:30:59.124Z,8.85
2018-07-11T02:33:27.278Z,9.23
2018-07-11T02:35:55.417Z,8.35
2018-07-11T02:38:23.590Z,8.00
2018-07-11T02:40:51.735Z,9.20
2018-07-11T02:43:19.914Z,9.18
2018-07-11T02:45:48.070Z,8.90
2018-07-11T02:48:16.219Z,9.30
2018-07-11T02:50:44.385Z,9.35
2018-07-11T02:53:21.976Z,9.05
2018-07-11T02:55:51.038Z,9.53
2018-07-11T02:58:19.268Z,9.10
2018-07-11T03:00:47.955Z,10.55
2018-07-11T03:03:16.323Z,10.88
2018-07-11T03:05:44.477Z,9.45
2018-07-11T03:08:12.941Z,11.05
2018-07-11T03:10:41.154Z,9.30
2018-07-11T03:13:09.168Z,10.32
2018-07-11T03:15:37.357Z,11.90
2018-07-11T03:18:06.049Z,10.53
2018-07-11T03:20:34.214Z,12.18
2018-07-11T03:23:02.371Z,10.23
2018-07-11T03:25:30.590Z,11.95
2018-07-11T03:27:58.785Z,10.32
2018-07-11T03:30:26.979Z,9.95
2018-07-11T03:32:55.126Z,9.10
2018-07-11T03:35:23.294Z,10.05
2018-07-11T03:37:51.815Z,10.80
2018-07-11T03:40:19.972Z,10.80
2018-07-11T03:42:48.276Z,11.68
2018-07-11T03:45:16.441Z,12.25
2018-07-11T03:47:44.604Z,10.75
2018-07-11T03:50:12.751Z,12.10
2018-07-11T03:52:40.951Z,10.40
2018-07-11T03:55:09.119Z,10.60
2018-07-11T03:57:37.280Z,12.43
2018-07-11T04:00:05.528Z,9.53
2018-07-11T04:02:33.709Z,10.10
2018-07-11T04:05:01.871Z,9.98
2018-07-11T04:07:30.058Z,10.55
2018-07-11T04:09:58.216Z,16.10
2018-07-11T04:12:26.375Z,10.58
2018-07-11T04:14:54.549Z,11.22
2018-07-11T04:17:22.750Z,11.53
2018-07-11T04:19:50.932Z,10.65
2018-07-11T04:22:19.076Z,8.98
2018-07-11T04:24:47.252Z,12.07
2018-07-11T04:27:15.401Z,8.85
2018-07-11T04:29:43.569Z,9.58
2018-07-11T04:32:11.748Z,13.00
2018-07-11T04:34:39.966Z,9.23
2018-07-11T04:37:08.125Z,8.65
2018-07-11T04:39:36.336Z,13.00
2018-07-11T04:42:04.487Z,9.48
2018-07-11T04:44:32.901Z,8.33
2018-07-11T04:47:01.077Z,8.98
2018-07-11T04:49:29.297Z,11.10
2018-07-11T04:51:57.461Z,10.65
2018-07-11T04:54:25.632Z,9.30
2018-07-11T04:56:53.797Z,8.90
2018-07-11T04:59:21.972Z,10.68
2018-07-11T05:01:50.135Z,11.35
2018-07-11T05:04:18.303Z,9.45
2018-07-11T05:06:46.450Z,9.53
2018-07-11T05:09:14.873Z,8.80
2018-07-11T05:11:43.062Z,10.58
2018-07-11T05:14:11.370Z,9.98
2018-07-11T05:16:39.537Z,8.08
2018-07-11T05:19:07.756Z,9.93
2018-07-11T05:21:35.920Z,9.93
2018-07-11T05:24:04.069Z,11.05
2018-07-11T05:26:32.226Z,10.13
2018-07-11T05:29:00.382Z,11.18
2018-07-11T05:31:28.541Z,13.45
2018-07-11T05:33:56.717Z,8.15
2018-07-11T05:36:24.941Z,20.90
2018-07-11T05:38:53.045Z,13.35
2018-07-11T05:41:21.214Z,9.63
2018-07-11T05:43:49.377Z,11.45
2018-07-11T05:46:17.555Z,11.83
2018-07-11T05:48:45.709Z,8.78
2018-07-11T05:51:13.864Z,11.48
2018-07-11T05:53:43.163Z,8.85
2018-07-11T05:56:12.832Z,10.68
2018-07-11T05:58:42.781Z,10.15
2018-07-11T06:01:11.564Z,12.98
2018-07-11T06:03:41.638Z,16.90
2018-07-11T06:06:09.826Z,9.60
2018-07-11T06:08:38.417Z,13.58
2018-07-11T06:11:16.461Z,10.70
2018-07-11T06:13:44.688Z,8.50
2018-07-11T06:16:12.858Z,9.65
2018-07-11T06:18:41.078Z,10.05
2018-07-11T06:21:09.341Z,12.55
2018-07-11T06:23:37.510Z,8.63
2018-07-11T06:26:06.041Z,9.23
2018-07-11T06:28:34.282Z,11.08
2018-07-11T06:31:02.562Z,9.80
2018-07-11T06:33:30.789Z,9.93
2018-07-11T06:35:58.913Z,13.13
2018-07-11T06:38:27.069Z,13.30
2018-07-11T06:40:55.461Z,10.20
2018-07-11T06:43:23.620Z,11.28
2018-07-11T06:45:52.322Z,10.95
2018-07-11T06:48:20.501Z,12.20
2018-07-11T06:50:48.718Z,10.20
2018-07-11T06:53:16.878Z,14.98
2018-07-11T06:55:45.070Z,10.40
2018-07-11T06:58:14.109Z,11.70
2018-07-11T07:00:45.471Z,8.03
2018-07-11T07:03:14.049Z,12.58
2018-07-11T07:05:42.209Z,12.65
2018-07-11T07:08:10.567Z,10.20
2018-07-11T07:10:38.772Z,12.30
2018-07-11T07:13:07.007Z,12.25
2018-07-11T07:15:35.289Z,10.53
2018-07-11T07:18:03.509Z,10.25
2018-07-11T07:20:31.669Z,11.80
2018-07-11T07:23:00.296Z,13.80
2018-07-11T07:25:28.809Z,14.00
2018-07-11T07:27:56.981Z,13.75
2018-07-11T07:30:26.454Z,16.77
2018-07-11T07:32:54.646Z,12.58
2018-07-11T07:35:22.816Z,17.37
2018-07-11T07:37:51.009Z,14.70
2018-07-11T07:40:19.194Z,13.60
2018-07-11T07:42:47.387Z,16.85
2018-07-11T07:45:15.578Z,14.85
2018-07-11T07:47:45.633Z,10.23
2018-07-11T07:50:14.709Z,14.10
2018-07-11T07:52:42.947Z,13.20
2018-07-11T07:55:11.428Z,13.65
2018-07-11T07:57:39.819Z,14.47
2018-07-11T08:00:07.990Z,20.05
2018-07-11T08:02:36.281Z,20.68
2018-07-11T08:05:06.478Z,18.25
2018-07-11T08:07:35.174Z,15.23
2018-07-11T08:10:03.334Z,12.15
2018-07-11T08:12:31.523Z,11.55
2018-07-11T08:14:59.693Z,16.48
2018-07-11T08:17:27.884Z,15.65
2018-07-11T08:19:56.033Z,15.48
2018-07-11T08:23:11.417Z,17.65
2018-07-11T08:25:51.316Z,12.60
2018-07-11T08:28:30.861Z,10.93
2018-07-11T08:31:12.700Z,14.85
2018-07-11T08:37:01.310Z,13.00
2018-07-11T08:39:59.444Z,11.85
2018-07-11T08:43:39.581Z,13.83
2018-07-11T08:46:15.159Z,8.93
2018-07-11T08:51:02.637Z,11.40
2018-07-11T08:55:51.464Z,13.78
2018-07-11T08:58:38.586Z,14.87
2018-07-11T09:03:20.596Z,12.23
2018-07-11T09:06:15.384Z,11.75
2018-07-11T09:08:51.861Z,12.98
2018-07-11T09:11:33.238Z,9.63
2018-07-11T09:16:16.426Z,10.55
2018-07-11T09:18:54.634Z,10.23
2018-07-11T09:21:44.476Z,7.90
2018-07-11T09:24:47.468Z,12.28
2018-07-11T09:27:15.685Z,8.75
2018-07-11T09:29:44.737Z,7.72
2018-07-11T09:32:13.411Z,11.18
2018-07-11T09:34:41.881Z,13.43
2018-07-11T09:37:10.181Z,10.85
2018-07-11T09:39:38.336Z,8.05
2018-07-11T09:42:06.745Z,11.22
2018-07-11T09:44:35.018Z,8.33
2018-07-11T09:47:08.562Z,6.75
2018-07-11T09:49:36.722Z,6.35
2018-07-11T09:52:04.928Z,12.07
2018-07-11T09:54:33.165Z,8.70
2018-07-11T09:57:01.369Z,10.28
2018-07-11T09:59:29.546Z,10.65
2018-07-11T10:01:57.751Z,7.70
2018-07-11T10:04:26.531Z,10.63
2018-07-11T10:06:54.697Z,8.70
2018-07-11T10:09:22.848Z,6.90
2018-07-11T10:11:51.056Z,6.83
2018-07-11T10:14:19.454Z,8.03
2018-07-11T10:16:47.657Z,5.30
2018-07-11T10:19:15.818Z,7.17
2018-07-11T10:21:43.987Z,9.40
2018-07-11T10:24:12.133Z,7.85
2018-07-11T10:26:40.304Z,6.75
2018-07-11T10:29:08.455Z,6.97
2018-07-11T10:31:36.661Z,6.47
2018-07-11T10:34:04.845Z,7.00
2018-07-11T10:36:33.010Z,7.83
2018-07-11T10:39:01.239Z,6.35
2018-07-11T10:41:29.453Z,8.58
2018-07-11T10:43:57.610Z,9.03
2018-07-11T10:46:25.784Z,7.15
2018-07-11T10:48:53.949Z,6.95
2018-07-11T10:51:22.092Z,8.83
2018-07-11T10:53:50.269Z,10.48
2018-07-11T10:56:18.529Z,8.30
2018-07-11T10:58:46.725Z,7.20
2018-07-11T11:01:14.942Z,11.80
2018-07-11T11:03:43.109Z,12.45
2018-07-11T11:06:11.277Z,14.15
2018-07-11T11:08:39.450Z,10.13
2018-07-11T11:11:07.972Z,13.05
2018-07-11T11:13:36.194Z,12.88
2018-07-11T11:16:04.349Z,15.13
2018-07-11T11:18:32.530Z,16.80
2018-07-11T11:21:00.698Z,14.00
2018-07-11T11:23:28.866Z,13.53
2018-07-11T11:25:57.025Z,16.82
2018-07-11T11:28:25.390Z,14.55
2018-07-11T11:30:53.542Z,14.60
2018-07-11T11:33:21.824Z,16.05
2018-07-11T11:35:49.996Z,15.05
2018-07-11T11:38:18.192Z,15.13
2018-07-11T11:40:46.373Z,14.07
2018-07-11T11:43:14.537Z,17.07
2018-07-11T11:45:42.700Z,21.93
2018-07-11T11:48:10.894Z,17.10
2018-07-11T11:50:39.081Z,11.83
2018-07-11T11:53:07.236Z,14.83
2018-07-11T11:55:35.402Z,14.15
2018-07-11T11:58:03.604Z,15.30
2018-07-11T12:00:31.774Z,15.03
2018-07-11T12:02:59.948Z,14.95
2018-07-11T12:05:28.126Z,16.82
2018-07-11T12:07:56.298Z,14.63
2018-07-11T12:10:24.482Z,15.28
2018-07-11T12:12:52.633Z,16.73
2018-07-11T12:15:20.804Z,16.15
2018-07-11T12:17:48.967Z,13.88
2018-07-11T12:20:17.124Z,14.28
2018-07-11T12:22:45.279Z,16.62
2018-07-11T12:25:13.439Z,14.75
2018-07-11T12:27:41.586Z,19.70
2018-07-11T12:30:09.774Z,16.23
2018-07-11T12:32:37.946Z,14.30
2018-07-11T12:35:06.104Z,15.58
2018-07-11T12:37:34.269Z,20.10
2018-07-11T12:40:02.535Z,18.25
2018-07-11T12:42:30.737Z,20.37
2018-07-11T12:44:58.937Z,18.70
2018-07-11T12:47:32.452Z,17.52
2018-07-11T12:50:00.613Z,17.52
2018-07-11T12:52:29.216Z,17.40
2018-07-11T12:54:57.380Z,17.32
2018-07-11T12:57:25.803Z,18.55
2018-07-11T12:59:53.974Z,20.32
2018-07-11T13:02:22.161Z,22.90
2018-07-11T13:04:50.361Z,28.77
2018-07-11T13:07:18.561Z,22.73
2018-07-11T13:09:46.741Z,20.72
2018-07-11T13:12:14.916Z,18.55
2018-07-11T13:14:43.066Z,23.65
2018-07-11T13:17:11.224Z,23.62
2018-07-11T13:19:39.396Z,20.30
2018-07-11T13:22:07.561Z,19.80
2018-07-11T13:24:35.743Z,22.52
2018-07-11T13:27:03.921Z,32.05
2018-07-11T13:29:32.091Z,33.48
2018-07-11T13:32:00.258Z,24.50
2018-07-11T13:34:28.453Z,24.63
2018-07-11T13:36:56.616Z,20.20
2018-07-11T13:39:24.785Z,19.90
2018-07-11T13:41:53.776Z,18.80
2018-07-11T13:44:21.969Z,20.57
2018-07-11T13:46:50.118Z,16.37
2018-07-11T13:49:18.280Z,18.77
2018-07-11T13:51:46.222Z,16.73
2018-07-11T13:54:14.407Z,19.37
2018-07-11T13:56:42.631Z,20.12
2018-07-11T13:59:10.799Z,19.20
2018-07-11T14:01:38.961Z,16.30
2018-07-11T14:04:07.157Z,15.90
2018-07-11T14:06:35.312Z,15.55
2018-07-11T14:09:04.369Z,15.05
2018-07-11T14:11:32.573Z,15.72
2018-07-11T14:14:00.786Z,16.30
2018-07-11T14:16:29.020Z,16.55
2018-07-11T14:18:57.189Z,17.40
2018-07-11T14:21:25.414Z,16.97
2018-07-11T14:23:54.461Z,16.65
2018-07-11T14:26:22.645Z,17.67
2018-07-11T14:28:52.205Z,14.98
2018-07-11T14:31:28.745Z,16.65
2018-07-11T14:33:59.609Z,13.65
2018-07-11T14:36:27.954Z,15.18
2018-07-11T14:38:56.136Z,14.00
2018-07-11T14:41:24.354Z,14.23
2018-07-11T14:43:52.945Z,16.25
2018-07-11T14:46:21.225Z,16.17
2018-07-11T14:48:49.389Z,19.82
2018-07-11T14:51:17.607Z,15.40
2018-07-11T14:53:46.757Z,15.40
2018-07-11T14:56:14.922Z,15.95
2018-07-11T14:58:43.191Z,16.25
2018-07-11T15:01:11.342Z,15.68
2018-07-11T15:03:39.294Z,16.35
2018-07-11T15:06:07.442Z,15.40
2018-07-11T15:08:35.737Z,16.40
2018-07-11T15:11:03.818Z,16.05
2018-07-11T15:13:31.988Z,15.83
2018-07-11T15:16:00.152Z,14.45
2018-07-11T15:18:28.353Z,13.65
2018-07-11T15:20:56.524Z,16.67
2018-07-11T15:23:24.681Z,14.33
2018-07-11T15:25:52.849Z,17.30
2018-07-11T15:28:21.021Z,12.70
2018-07-11T15:30:49.189Z,17.52
2018-07-11T15:33:18.385Z,14.00
2018-07-11T15:35:46.575Z,13.25
2018-07-11T15:38:14.734Z,12.47
2018-07-11T15:40:43.403Z,15.43
2018-07-11T15:43:11.702Z,14.60
2018-07-11T15:45:39.932Z,12.28
2018-07-11T15:48:08.132Z,13.90
2018-07-11T15:50:36.497Z,12.63
2018-07-11T15:53:04.685Z,13.13
2018-07-11T15:55:34.232Z,13.95
2018-07-11T15:58:08.484Z,11.70
2018-07-11T16:00:40.822Z,12.40
2018-07-11T16:03:11.106Z,12.70
2018-07-11T16:05:41.156Z,13.28
2018-07-11T16:08:09.096Z,14.05
2018-07-11T16:10:42.049Z,11.65
2018-07-11T16:13:10.245Z,13.80
2018-07-11T16:15:38.401Z,12.93
2018-07-11T16:18:07.650Z,11.85
2018-07-11T16:20:36.352Z,15.30
2018-07-11T16:23:04.921Z,14.07
2018-07-11T16:25:33.089Z,14.93
2018-07-11T16:28:01.722Z,11.90
2018-07-11T16:30:29.897Z,12.20
2018-07-11T16:32:58.081Z,11.00
2018-07-11T16:35:26.221Z,12.20
2018-07-11T16:37:54.385Z,10.50
2018-07-11T16:40:22.569Z,9.68
2018-07-11T16:42:51.541Z,11.20
2018-07-11T16:45:19.677Z,11.30
2018-07-11T16:47:47.865Z,11.65
2018-07-11T16:50:16.471Z,10.93
2018-07-11T16:52:45.461Z,12.68
2018-07-11T16:55:13.737Z,12.47
2018-07-11T16:57:43.770Z,12.37
2018-07-11T17:00:12.018Z,12.00
2018-07-11T17:02:41.429Z,11.48
2018-07-11T17:05:10.527Z,10.65
2018-07-11T17:07:59.712Z,12.50
2018-07-11T17:10:29.800Z,12.00
2018-07-11T17:13:07.214Z,10.88
2018-07-11T17:15:36.521Z,11.95
2018-07-11T17:18:05.094Z,13.55
2018-07-11T17:20:33.261Z,14.15
2018-07-11T17:23:05.867Z,13.62
2018-07-11T17:25:38.878Z,14.03
2018-07-11T17:28:07.038Z,13.83
2018-07-11T17:30:37.934Z,13.98
2018-07-11T17:33:07.659Z,14.60
2018-07-11T17:35:36.650Z,13.88
2018-07-11T17:38:07.177Z,15.00
2018-07-11T17:40:35.753Z,14.40
2018-07-11T17:43:05.644Z,15.70
2018-07-11T17:45:35.752Z,18.70
2018-07-11T17:49:14.521Z,12.73
2018-07-11T17:51:48.677Z,14.85
2018-07-11T17:54:16.914Z,14.07
2018-07-11T17:56:56.017Z,15.95
2018-07-11T17:59:34.881Z,16.82
2018-07-11T18:02:10.885Z,14.90
2018-07-11T18:05:15.061Z,15.80
2018-07-11T18:07:46.690Z,20.43
2018-07-11T18:10:30.050Z,14.55
2018-07-11T18:13:02.705Z,15.32
2018-07-11T18:15:33.818Z,14.75
2018-07-11T18:18:13.464Z,33.13
2018-07-11T18:21:53.833Z,19.10
2018-07-11T18:24:36.324Z,15.80
2018-07-11T18:27:11.028Z,14.45
2018-07-11T18:30:54.508Z,16.40
2018-07-11T18:33:33.446Z,14.18
2018-07-11T18:38:36.033Z,15.23
2018-07-11T18:41:04.206Z,15.20
2018-07-11T18:44:14.779Z,16.55
2018-07-11T18:46:51.048Z,16.15
2018-07-11T18:49:36.068Z,14.07
2018-07-11T18:52:16.689Z,14.18
2018-07-11T18:54:58.888Z,13.85
2018-07-11T18:57:35.028Z,16.02
2018-07-11T19:00:14.789Z,13.40
2018-07-11T19:02:52.133Z,16.00
2018-07-11T19:05:31.885Z,13.78
2018-07-11T19:08:06.033Z,14.20
2018-07-11T19:10:42.192Z,14.78
2018-07-11T19:13:46.221Z,14.03
2018-07-11T19:16:17.673Z,13.80
2018-07-11T19:18:56.593Z,13.53
2018-07-11T19:21:39.509Z,14.45
2018-07-11T19:24:13.030Z,13.68
2018-07-11T19:26:55.742Z,13.05
2018-07-11T19:30:16.640Z,14.35
2018-07-11T19:32:56.488Z,13.75
2018-07-11T19:35:35.510Z,12.82
2018-07-11T19:38:12.793Z,14.38
2018-07-11T19:40:46.565Z,13.05
2018-07-11T19:44:32.361Z,14.10
2018-07-11T19:47:12.865Z,13.15
2018-07-11T19:50:50.946Z,13.18
2018-07-11T19:53:27.081Z,14.10
2018-07-11T19:56:15.009Z,13.58
2018-07-11T19:58:43.327Z,14.50
2018-07-11T20:01:12.077Z,13.72
2018-07-11T20:03:40.254Z,14.68
2018-07-11T20:06:08.474Z,14.00
2018-07-11T20:08:36.668Z,13.15
2018-07-11T20:11:05.058Z,12.75
2018-07-11T20:13:33.234Z,12.25
2018-07-11T20:16:01.418Z,13.28
2018-07-11T20:18:29.591Z,13.03
2018-07-11T20:20:57.745Z,13.35
2018-07-11T20:23:25.942Z,13.43
2018-07-11T20:25:54.115Z,12.65
2018-07-11T20:28:22.601Z,12.63
2018-07-11T20:30:50.841Z,13.18
2018-07-11T20:33:19.025Z,12.78
2018-07-11T20:35:47.225Z,13.20
2018-07-11T20:38:15.410Z,11.45
2018-07-11T20:40:43.737Z,12.13
2018-07-11T20:43:11.928Z,12.47
2018-07-11T20:45:40.111Z,29.90
2018-07-11T20:48:08.306Z,32.65
2018-07-11T20:50:36.477Z,15.25
2018-07-11T20:53:04.667Z,12.05
2018-07-11T20:55:32.808Z,12.37
2018-07-11T20:58:12.389Z,12.68
2018-07-11T21:00:52.049Z,12.35
2018-07-11T21:03:28.986Z,11.73
2018-07-11T21:08:13.225Z,11.22
2018-07-11T21:10:53.024Z,12.05
2018-07-11T21:13:36.265Z,12.00
2018-07-11T21:16:16.015Z,12.13
2018-07-11T21:19:08.888Z,12.25
2018-07-11T21:21:38.067Z,11.73
2018-07-11T21:24:07.468Z,12.78
2018-07-11T21:26:36.041Z,12.07
2018-07-11T21:29:04.212Z,12.82
2018-07-11T21:31:32.388Z,11.30
2018-07-11T21:34:00.548Z,13.05
2018-07-11T21:36:28.726Z,14.07
2018-07-11T21:38:56.900Z,12.53
2018-07-11T21:41:25.059Z,14.33
2018-07-11T21:43:53.200Z,13.80
2018-07-11T21:46:21.536Z,13.50
2018-07-11T21:48:49.711Z,12.65
2018-07-11T21:51:17.872Z,13.95
2018-07-11T21:53:46.033Z,14.15
2018-07-11T21:56:14.228Z,13.80
2018-07-11T21:58:42.381Z,13.18
2018-07-11T22:01:11.723Z,13.70
2018-07-11T22:03:39.874Z,13.72
2018-07-11T22:06:08.192Z,13.55
2018-07-11T22:08:36.432Z,13.30
2018-07-11T22:11:04.618Z,15.13
2018-07-11T22:13:32.786Z,14.47
2018-07-11T22:16:00.961Z,12.35
2018-07-11T22:18:43.673Z,13.58
2018-07-11T22:21:11.748Z,13.90
2018-07-11T22:23:39.197Z,13.60
2018-07-11T22:26:06.393Z,13.05
2018-07-11T22:28:33.609Z,13.48
2018-07-11T22:31:00.802Z,15.23
2018-07-11T22:33:27.992Z,15.35
2018-07-11T22:35:55.181Z,14.38
2018-07-11T22:38:22.369Z,13.48
2018-07-11T22:40:49.772Z,13.10
2018-07-11T22:43:16.957Z,13.10
2018-07-11T22:45:44.152Z,13.50
2018-07-11T22:48:11.333Z,15.20
2018-07-11T22:50:38.524Z,15.08
2018-07-11T22:53:05.712Z,14.58
2018-07-11T22:55:32.898Z,14.63
2018-07-11T22:58:00.090Z,15.98
2018-07-11T23:00:27.274Z,14.58
2018-07-11T23:02:54.475Z,13.98
2018-07-11T23:05:21.648Z,14.95
2018-07-11T23:07:48.841Z,16.97
2018-07-11T23:10:16.029Z,14.50
2018-07-11T23:12:43.212Z,14.65
2018-07-11T23:15:10.388Z,14.78
2018-07-11T23:17:37.582Z,15.10
2018-07-11T23:20:04.772Z,14.47
2018-07-11T23:22:31.969Z,14.53
2018-07-11T23:24:59.149Z,14.60
2018-07-11T23:27:26.337Z,14.78
2018-07-11T23:29:53.634Z,16.05
2018-07-11T23:32:20.818Z,15.45
2018-07-11T23:34:47.993Z,14.23
2018-07-11T23:37:15.196Z,15.50
2018-07-11T23:39:42.381Z,14.75
2018-07-11T23:42:09.586Z,13.85
2018-07-11T23:44:36.761Z,14.63
2018-07-11T23:47:03.954Z,15.15
2018-07-11T23:49:31.157Z,16.20
2018-07-11T23:51:58.342Z,15.53
2018-07-11T23:54:25.538Z,17.65
2018-07-11T23:56:52.710Z,14.05
2018-07-11T23:59:19.896Z,15.08
